Terminal Aerodrome Forecast
Issued by NWS

Home | Current Version | Previous Version | Graphics & Text | Print | Product List | Glossary On
Versions: 1 2 3 4 5 6 7 8 9 10 11 12 13 14 15 16 17 18
000
FTUS43 KTOP 100300 AAA
TAFFOE
TAF AMD
KFOE 100341Z 1004/1024 10006KT P6SM -SHRA SCT070 BKN120
      TEMPO 1006/1009 6SM -TSRA BKN060CB OVC120
     FM101100 10005KT P6SM BKN080
     FM101700 14013G21KT P6SM SCT100=

USA.gov is the U.S. government's official web portal to all federal, state and local government web resources and services.